Time;durP1;ratioP1;P1;durP2;ratioP2;P2;SDS_P1;SDS_P2;PMS_P1;PMS_P2;Temp;Humidity;BMP_temperature;BMP_pressure;BME280_temperature;BME280_humidity;BME280_pressure;Samples;Min_cycle;Max_cycle;Signal;HPM_P1;HPM_P2
2022/04/04 00:00:40;;;;;;;7.10;2.45;;;;;;;;;;4973846;28;20010;-79
2022/04/04 00:03:05;;;;;;;8.60;2.80;;;;;;;;;;4974590;28;20026;-79
2022/04/04 00:05:31;;;;;;;4.85;2.63;;;;;;;;;;4979105;28;20047;-78
2022/04/04 00:07:56;;;;;;;4.35;2.47;;;;;;;;;;4978375;28;20030;-78
2022/04/04 00:10:21;;;;;;;8.48;2.40;;;;;;;;;;4979399;28;20023;-78
2022/04/04 00:12:46;;;;;;;5.15;2.95;;;;;;;;;;4977131;28;20456;-78
2022/04/04 00:15:12;;;;;;;3.95;2.38;;;;;;;;;;4979908;28;20026;-78
2022/04/04 00:17:37;;;;;;;3.88;2.20;;;;;;;;;;4978569;28;20019;-78
2022/04/04 00:20:04;;;;;;;4.18;2.35;;;;;;;;;;4979441;28;20429;-78
2022/04/04 00:22:30;;;;;;;4.72;2.40;;;;;;;;;;4978440;28;20027;-78
2022/04/04 00:24:55;;;;;;;4.32;2.13;;;;;;;;;;4979260;28;20039;-78
2022/04/04 00:27:21;;;;;;;5.63;2.35;;;;;;;;;;4979936;28;20084;-78
2022/04/04 00:29:46;;;;;;;4.85;2.40;;;;;;;;;;4980598;28;20514;-78
2022/04/04 00:32:11;;;;;;;6.03;2.45;;;;;;;;;;4978278;28;20177;-78
2022/04/04 00:34:37;;;;;;;6.25;2.08;;;;;;;;;;4978503;28;20408;-78
2022/04/04 00:37:02;;;;;;;5.82;2.17;;;;;;;;;;4977869;28;20023;-79
2022/04/04 00:39:27;;;;;;;9.38;2.38;;;;;;;;;;4978731;28;20019;-78
2022/04/04 00:41:52;;;;;;;4.75;2.30;;;;;;;;;;4979899;28;20019;-77
2022/04/04 00:44:21;;;;;;;4.03;2.35;;;;;;;;;;4981325;28;20023;-78
2022/04/04 00:46:46;;;;;;;5.30;2.77;;;;;;;;;;4978524;28;20023;-79
2022/04/04 00:49:11;;;;;;;4.15;2.33;;;;;;;;;;4979778;28;20651;-79
2022/04/04 00:51:37;;;;;;;5.55;2.80;;;;;;;;;;4979473;28;20022;-78
2022/04/04 00:54:03;;;;;;;4.28;2.13;;;;;;;;;;4977879;28;20023;-77
2022/04/04 00:56:31;;;;;;;4.88;2.30;;;;;;;;;;4977472;28;20031;-78
2022/04/04 00:58:56;;;;;;;5.60;2.20;;;;;;;;;;4978653;28;20050;-79
2022/04/04 01:01:22;;;;;;;4.97;2.42;;;;;;;;;;4978588;28;20423;-78
2022/04/04 01:03:47;;;;;;;4.88;2.03;;;;;;;;;;4977471;28;20027;-78
2022/04/04 01:06:12;;;;;;;4.88;2.42;;;;;;;;;;4979174;28;20054;-78
2022/04/04 01:08:38;;;;;;;3.70;2.20;;;;;;;;;;4977823;28;20054;-78
2022/04/04 01:11:03;;;;;;;6.47;2.42;;;;;;;;;;4979834;28;20027;-78
2022/04/04 01:13:28;;;;;;;5.50;2.83;;;;;;;;;;4979194;28;20430;-77
2022/04/04 01:15:53;;;;;;;3.72;2.25;;;;;;;;;;4980333;28;20019;-78
2022/04/04 01:18:18;;;;;;;5.68;2.60;;;;;;;;;;4977678;28;20019;-78
2022/04/04 01:20:44;;;;;;;6.45;2.60;;;;;;;;;;4978531;28;20022;-77
2022/04/04 01:23:12;;;;;;;4.65;2.63;;;;;;;;;;4978750;28;20030;-77
2022/04/04 01:25:37;;;;;;;5.80;2.60;;;;;;;;;;4977867;28;20034;-77
2022/04/04 01:28:03;;;;;;;4.50;2.53;;;;;;;;;;4977470;28;20386;-79
2022/04/04 01:30:29;;;;;;;4.30;2.65;;;;;;;;;;4977572;28;20374;-78
2022/04/04 01:32:55;;;;;;;8.00;2.70;;;;;;;;;;4976826;28;20019;-79
2022/04/04 01:35:20;;;;;;;5.20;2.92;;;;;;;;;;4977899;28;20426;-78
2022/04/04 01:37:46;;;;;;;6.65;2.78;;;;;;;;;;4979418;28;20019;-77
2022/04/04 01:40:11;;;;;;;5.63;2.78;;;;;;;;;;4977021;28;20034;-79
2022/04/04 01:42:37;;;;;;;5.13;2.60;;;;;;;;;;4976046;28;20479;-78
2022/04/04 01:45:03;;;;;;;5.20;2.85;;;;;;;;;;4976338;28;20026;-77
2022/04/04 01:47:28;;;;;;;9.00;3.00;;;;;;;;;;4976478;28;20105;-78
2022/04/04 01:49:54;;;;;;;4.78;3.15;;;;;;;;;;4977020;28;20049;-78
2022/04/04 01:52:19;;;;;;;6.55;4.07;;;;;;;;;;4975639;28;20022;-78
2022/04/04 01:54:44;;;;;;;5.53;2.95;;;;;;;;;;4976988;28;20015;-77
2022/04/04 01:57:09;;;;;;;7.88;3.20;;;;;;;;;;4974516;28;20019;-76
2022/04/04 01:59:35;;;;;;;6.72;2.88;;;;;;;;;;4975454;28;20023;-78
2022/04/04 02:02:00;;;;;;;4.00;2.67;;;;;;;;;;4974122;28;20027;-77
2022/04/04 02:04:25;;;;;;;6.03;3.00;;;;;;;;;;4976343;28;20536;-77
2022/04/04 02:06:50;;;;;;;7.78;3.17;;;;;;;;;;4977523;28;20106;-79
2022/04/04 02:09:16;;;;;;;4.63;2.85;;;;;;;;;;4974976;28;20026;-78
2022/04/04 02:11:42;;;;;;;5.50;3.40;;;;;;;;;;4975269;28;20054;-78
2022/04/04 02:14:07;;;;;;;6.73;3.10;;;;;;;;;;4974794;28;20478;-77
2022/04/04 02:16:32;;;;;;;8.20;3.00;;;;;;;;;;4973675;28;20029;-78
2022/04/04 02:18:57;;;;;;;5.47;2.83;;;;;;;;;;4977730;28;20098;-77
2022/04/04 02:21:22;;;;;;;5.63;3.03;;;;;;;;;;4974668;28;20394;-79
2022/04/04 02:23:48;;;;;;;5.13;2.97;;;;;;;;;;4974443;28;20018;-78
2022/04/04 02:26:13;;;;;;;8.73;3.20;;;;;;;;;;4973056;28;20394;-77
2022/04/04 02:28:38;;;;;;;5.13;3.30;;;;;;;;;;4973846;28;20038;-78
2022/04/04 02:31:04;;;;;;;5.28;3.20;;;;;;;;;;4975565;28;20023;-78
2022/04/04 02:33:30;;;;;;;7.27;3.23;;;;;;;;;;4975048;28;20030;-77
2022/04/04 02:35:55;;;;;;;5.37;3.63;;;;;;;;;;4976808;28;20033;-78
2022/04/04 02:38:22;;;;;;;8.17;3.07;;;;;;;;;;4973587;28;20035;-77
2022/04/04 02:40:47;;;;;;;6.37;3.53;;;;;;;;;;4976042;28;20027;-78
2022/04/04 02:43:12;;;;;;;6.40;3.40;;;;;;;;;;4975410;28;20074;-77
2022/04/04 02:45:38;;;;;;;8.83;3.43;;;;;;;;;;4973565;28;20033;-78
2022/04/04 02:48:03;;;;;;;6.70;3.70;;;;;;;;;;4975493;28;20023;-77
2022/04/04 02:50:29;;;;;;;10.60;3.57;;;;;;;;;;4977036;28;20474;-79
2022/04/04 02:52:54;;;;;;;7.27;3.83;;;;;;;;;;4974557;28;20019;-77
2022/04/04 02:58:22;;;;;;;5.77;3.30;;;;;;;;;;4934694;29;20435;-78
2022/04/04 03:00:48;;;;;;;5.57;3.33;;;;;;;;;;4935366;29;20027;-78
2022/04/04 03:03:14;;;;;;;7.40;3.87;;;;;;;;;;4955378;28;20026;-78
2022/04/04 03:05:39;;;;;;;6.80;3.57;;;;;;;;;;4975495;28;20031;-79
2022/04/04 03:08:04;;;;;;;7.03;3.80;;;;;;;;;;4973267;28;20474;-79
2022/04/04 03:10:33;;;;;;;8.13;3.63;;;;;;;;;;4974459;28;20026;-78
2022/04/04 03:13:00;;;;;;;7.15;4.00;;;;;;;;;;4975458;28;20027;-78
2022/04/04 03:15:25;;;;;;;8.97;4.30;;;;;;;;;;4976440;28;20019;-78
2022/04/04 03:17:52;;;;;;;10.60;4.03;;;;;;;;;;4974448;28;20025;-78
2022/04/04 03:20:18;;;;;;;6.80;4.33;;;;;;;;;;4974970;28;20069;-78
2022/04/04 03:22:45;;;;;;;6.77;3.77;;;;;;;;;;4974568;28;20038;-78
2022/04/04 03:25:11;;;;;;;8.07;4.23;;;;;;;;;;4974664;28;20038;-79
2022/04/04 03:27:37;;;;;;;11.53;4.60;;;;;;;;;;4974038;28;20019;-78
2022/04/04 03:30:07;;;;;;;9.57;4.60;;;;;;;;;;4974222;28;20463;-78
2022/04/04 03:32:32;;;;;;;9.50;4.30;;;;;;;;;;4974257;28;20023;-78
2022/04/04 03:34:57;;;;;;;8.50;4.53;;;;;;;;;;4974020;28;20093;-78
2022/04/04 03:37:24;;;;;;;7.70;4.17;;;;;;;;;;4972955;28;20019;-78
2022/04/04 03:39:49;;;;;;;8.20;5.23;;;;;;;;;;4975396;28;20019;-78
2022/04/04 03:42:16;;;;;;;10.07;4.63;;;;;;;;;;4975551;28;20394;-78
2022/04/04 03:44:41;;;;;;;9.53;5.17;;;;;;;;;;4974834;28;20034;-79
2022/04/04 03:47:07;;;;;;;7.67;5.33;;;;;;;;;;4974709;28;20019;-78
2022/04/04 03:49:32;;;;;;;7.30;4.63;;;;;;;;;;4974413;28;20046;-79
2022/04/04 03:51:57;;;;;;;8.17;4.80;;;;;;;;;;4975324;28;20521;-79
2022/04/04 03:54:23;;;;;;;9.17;4.80;;;;;;;;;;4975239;28;20548;-78
2022/04/04 03:56:49;;;;;;;9.40;5.30;;;;;;;;;;4975021;28;20110;-78
2022/04/04 03:59:14;;;;;;;10.27;4.70;;;;;;;;;;4975946;28;20386;-78
2022/04/04 04:01:39;;;;;;;9.50;5.40;;;;;;;;;;4974940;28;20378;-77
2022/04/04 04:04:04;;;;;;;8.20;4.93;;;;;;;;;;4973879;28;20019;-78
2022/04/04 04:06:31;;;;;;;8.73;4.70;;;;;;;;;;4974769;28;20018;-78
2022/04/04 04:08:58;;;;;;;7.17;4.67;;;;;;;;;;4975248;28;20035;-78
2022/04/04 04:11:23;;;;;;;8.60;4.93;;;;;;;;;;4974089;28;20051;-77
2022/04/04 04:13:48;;;;;;;9.13;4.37;;;;;;;;;;4977403;28;20481;-78
2022/04/04 04:16:14;;;;;;;7.57;4.97;;;;;;;;;;4974190;28;20022;-78
2022/04/04 04:18:39;;;;;;;12.43;5.43;;;;;;;;;;4973577;28;20355;-78
2022/04/04 04:21:06;;;;;;;8.50;5.53;;;;;;;;;;4973964;28;20026;-79
2022/04/04 04:23:32;;;;;;;11.33;5.33;;;;;;;;;;4974587;28;20085;-78
2022/04/04 04:25:58;;;;;;;9.30;5.60;;;;;;;;;;4974603;28;20027;-79
2022/04/04 04:28:23;;;;;;;8.23;4.63;;;;;;;;;;4975110;28;20430;-78
2022/04/04 04:30:48;;;;;;;9.37;5.67;;;;;;;;;;4974180;28;20018;-78
2022/04/04 04:33:13;;;;;;;10.13;5.43;;;;;;;;;;4974225;28;20385;-77
2022/04/04 04:35:39;;;;;;;8.20;4.83;;;;;;;;;;4974341;28;20019;-79
2022/04/04 04:38:04;;;;;;;10.93;6.70;;;;;;;;;;4972947;28;20470;-79
2022/04/04 04:40:29;;;;;;;9.47;4.93;;;;;;;;;;4973235;28;20034;-78
2022/04/04 04:42:55;;;;;;;12.30;6.70;;;;;;;;;;4974276;28;20025;-77
2022/04/04 04:45:20;;;;;;;9.10;5.60;;;;;;;;;;4974265;28;20397;-79
2022/04/04 04:47:46;;;;;;;8.43;5.23;;;;;;;;;;4976573;28;20389;-79
2022/04/04 04:50:13;;;;;;;9.20;5.80;;;;;;;;;;4977090;28;20042;-79
2022/04/04 04:52:38;;;;;;;9.30;5.60;;;;;;;;;;4977808;28;20084;-78
2022/04/04 04:55:04;;;;;;;12.73;5.73;;;;;;;;;;4977575;28;20114;-77
2022/04/04 04:57:30;;;;;;;9.83;5.80;;;;;;;;;;4976183;28;20043;-78
2022/04/04 04:59:56;;;;;;;14.13;5.77;;;;;;;;;;4976001;28;20030;-77
2022/04/04 05:02:21;;;;;;;11.10;5.53;;;;;;;;;;4976067;28;20557;-78
2022/04/04 05:04:47;;;;;;;12.30;6.20;;;;;;;;;;4977577;28;20026;-79
2022/04/04 05:07:13;;;;;;;10.63;5.90;;;;;;;;;;4977245;28;20046;-78
2022/04/04 05:09:38;;;;;;;16.63;6.20;;;;;;;;;;4978188;28;20029;-79
2022/04/04 05:12:04;;;;;;;13.17;5.53;;;;;;;;;;4975514;28;20114;-79
2022/04/04 05:14:29;;;;;;;11.43;5.90;;;;;;;;;;4977916;28;20105;-79
2022/04/04 05:16:55;;;;;;;8.73;5.13;;;;;;;;;;4976957;28;20082;-79
2022/04/04 05:19:20;;;;;;;10.90;5.43;;;;;;;;;;4976173;28;20094;-79
2022/04/04 05:21:45;;;;;;;11.27;5.63;;;;;;;;;;4977389;28;20025;-79
2022/04/04 05:24:11;;;;;;;9.73;6.00;;;;;;;;;;4976167;28;20494;-78
2022/04/04 05:26:37;;;;;;;8.17;5.43;;;;;;;;;;4976126;28;20034;-78
2022/04/04 05:29:02;;;;;;;10.57;5.80;;;;;;;;;;4977485;28;20470;-79
2022/04/04 05:31:30;;;;;;;10.23;5.80;;;;;;;;;;4977927;28;20553;-79
2022/04/04 05:33:57;;;;;;;11.07;6.50;;;;;;;;;;4977289;28;20027;-79
2022/04/04 05:36:22;;;;;;;9.50;6.13;;;;;;;;;;4977263;28;20235;-79
2022/04/04 05:38:50;;;;;;;11.10;6.03;;;;;;;;;;4975670;28;20080;-78
2022/04/04 05:41:15;;;;;;;12.18;6.82;;;;;;;;;;4976179;28;20015;-79
2022/04/04 05:43:41;;;;;;;9.83;5.67;;;;;;;;;;4976103;28;20046;-78
2022/04/04 05:46:06;;;;;;;12.07;6.53;;;;;;;;;;4976293;28;20367;-78
2022/04/04 05:48:32;;;;;;;12.80;5.90;;;;;;;;;;4976572;28;20022;-77
2022/04/04 05:50:57;;;;;;;10.27;5.90;;;;;;;;;;4981559;28;20019;-77
2022/04/04 05:53:23;;;;;;;9.37;5.37;;;;;;;;;;4976732;28;20025;-80
2022/04/04 05:55:48;;;;;;;12.67;6.33;;;;;;;;;;4976323;28;20029;-78
2022/04/04 05:58:13;;;;;;;10.23;5.90;;;;;;;;;;4977557;28;20019;-79
2022/04/04 06:00:38;;;;;;;12.40;6.23;;;;;;;;;;4977007;28;20497;-81
2022/04/04 06:03:03;;;;;;;9.53;5.77;;;;;;;;;;4979493;28;20026;-80
2022/04/04 06:05:30;;;;;;;11.00;5.53;;;;;;;;;;4979569;28;20082;-79
2022/04/04 06:07:55;;;;;;;9.23;5.23;;;;;;;;;;4981681;28;20049;-79
2022/04/04 06:10:20;;;;;;;13.23;5.87;;;;;;;;;;4979047;28;20477;-79
2022/04/04 06:12:46;;;;;;;9.27;5.50;;;;;;;;;;4977578;28;20473;-80
2022/04/04 06:15:12;;;;;;;12.87;5.90;;;;;;;;;;4977077;28;20034;-80
2022/04/04 06:17:38;;;;;;;10.40;5.47;;;;;;;;;;4977590;28;20015;-80
2022/04/04 06:20:05;;;;;;;8.38;5.38;;;;;;;;;;4977893;28;20050;-80
2022/04/04 06:22:36;;;;;;;12.13;5.97;;;;;;;;;;4978057;28;20026;-80
2022/04/04 06:25:03;;;;;;;8.23;5.72;;;;;;;;;;4977565;28;20038;-80
2022/04/04 06:27:28;;;;;;;10.57;5.67;;;;;;;;;;4977638;28;20097;-80
2022/04/04 06:29:53;;;;;;;10.40;5.75;;;;;;;;;;4977746;28;20437;-80
2022/04/04 06:32:18;;;;;;;11.70;6.17;;;;;;;;;;4978003;28;20027;-80
2022/04/04 06:34:43;;;;;;;18.13;6.67;;;;;;;;;;4979185;28;20045;-80
2022/04/04 06:37:10;;;;;;;15.47;5.93;;;;;;;;;;4979710;28;20022;-80
2022/04/04 06:39:36;;;;;;;13.45;5.90;;;;;;;;;;4981534;28;20022;-80
2022/04/04 06:42:02;;;;;;;8.45;5.80;;;;;;;;;;4981429;28;20126;-80
2022/04/04 06:44:28;;;;;;;8.60;5.80;;;;;;;;;;4982934;28;20022;-80
2022/04/04 06:46:53;;;;;;;9.98;5.78;;;;;;;;;;4981632;28;20077;-80
2022/04/04 06:49:20;;;;;;;15.25;6.32;;;;;;;;;;4980083;28;20014;-80
2022/04/04 06:51:46;;;;;;;11.25;5.25;;;;;;;;;;4980443;28;20033;-80
2022/04/04 06:54:11;;;;;;;12.27;6.13;;;;;;;;;;4980290;28;20027;-80
2022/04/04 06:56:36;;;;;;;8.73;5.87;;;;;;;;;;4982808;28;20457;-80
2022/04/04 06:59:02;;;;;;;13.05;5.63;;;;;;;;;;4981162;28;20470;-80
2022/04/04 07:01:27;;;;;;;9.73;5.95;;;;;;;;;;4978565;28;20046;-81
2022/04/04 07:03:53;;;;;;;11.43;5.97;;;;;;;;;;4981784;28;20526;-80
2022/04/04 07:06:18;;;;;;;12.73;6.80;;;;;;;;;;4984851;28;20086;-81
2022/04/04 07:08:44;;;;;;;13.75;6.82;;;;;;;;;;4982255;28;20050;-80
2022/04/04 07:11:10;;;;;;;12.55;6.60;;;;;;;;;;4982803;28;20011;-80
2022/04/04 07:13:36;;;;;;;11.60;7.30;;;;;;;;;;4978991;28;20022;-81
2022/04/04 07:16:01;;;;;;;12.27;7.10;;;;;;;;;;4979425;28;20162;-80
2022/04/04 07:18:26;;;;;;;12.00;6.82;;;;;;;;;;4978032;28;20023;-81
2022/04/04 07:20:51;;;;;;;10.80;6.10;;;;;;;;;;4984868;28;20019;-80
2022/04/04 07:23:17;;;;;;;13.25;7.55;;;;;;;;;;4984033;28;20027;-81
2022/04/04 07:25:42;;;;;;;13.70;7.95;;;;;;;;;;4981573;28;20035;-81
2022/04/04 07:28:08;;;;;;;10.80;7.10;;;;;;;;;;4983837;28;20037;-80
2022/04/04 07:30:34;;;;;;;15.05;8.23;;;;;;;;;;4984565;28;20085;-81
2022/04/04 07:33:01;;;;;;;11.45;7.30;;;;;;;;;;4986669;28;20033;-81
2022/04/04 07:35:27;;;;;;;11.45;7.38;;;;;;;;;;4986733;28;20073;-81
2022/04/04 07:37:52;;;;;;;12.55;7.22;;;;;;;;;;4985542;28;20045;-81
2022/04/04 07:40:18;;;;;;;11.73;7.70;;;;;;;;;;4984758;28;20393;-81
2022/04/04 07:42:44;;;;;;;15.18;7.30;;;;;;;;;;4983858;28;20035;-81
2022/04/04 07:45:10;;;;;;;20.30;7.97;;;;;;;;;;4986836;28;20051;-81
2022/04/04 07:47:37;;;;;;;12.75;7.30;;;;;;;;;;4984644;28;20039;-81
2022/04/04 07:50:03;;;;;;;22.88;7.65;;;;;;;;;;4981370;28;20026;-81
2022/04/04 07:52:28;;;;;;;9.95;6.97;;;;;;;;;;4983259;28;20031;-80
2022/04/04 07:54:54;;;;;;;13.38;7.07;;;;;;;;;;4981613;28;20038;-81
2022/04/04 07:57:19;;;;;;;10.50;7.03;;;;;;;;;;4982839;28;20019;-80
2022/04/04 07:59:45;;;;;;;14.75;6.82;;;;;;;;;;4981608;28;20094;-79
2022/04/04 08:02:10;;;;;;;11.15;7.03;;;;;;;;;;4982931;28;20046;-81
2022/04/04 08:04:35;;;;;;;9.95;6.70;;;;;;;;;;4981662;28;20081;-81
2022/04/04 08:07:00;;;;;;;11.82;6.85;;;;;;;;;;4981120;28;20109;-80
2022/04/04 08:09:26;;;;;;;11.32;6.43;;;;;;;;;;4984416;28;20023;-80
2022/04/04 08:11:52;;;;;;;11.30;7.38;;;;;;;;;;4984871;28;20027;-81
2022/04/04 08:14:18;;;;;;;9.93;6.55;;;;;;;;;;4984321;28;20032;-79
2022/04/04 08:16:43;;;;;;;14.70;6.82;;;;;;;;;;4983717;28;20034;-80
2022/04/04 08:19:08;;;;;;;15.43;6.82;;;;;;;;;;4985563;28;20019;-81
2022/04/04 08:21:34;;;;;;;13.85;6.82;;;;;;;;;;4983554;28;20022;-80
2022/04/04 08:24:00;;;;;;;14.68;7.65;;;;;;;;;;4983720;28;20046;-80
2022/04/04 08:26:25;;;;;;;9.75;6.72;;;;;;;;;;4986085;28;20026;-80
2022/04/04 08:28:50;;;;;;;8.57;6.22;;;;;;;;;;4985003;28;20486;-80
2022/04/04 08:31:16;;;;;;;12.40;6.75;;;;;;;;;;4982318;28;20525;-79
2022/04/04 08:33:41;;;;;;;10.00;6.75;;;;;;;;;;4983862;28;20018;-80
2022/04/04 08:36:07;;;;;;;21.98;8.15;;;;;;;;;;4985049;28;20564;-80
2022/04/04 08:38:33;;;;;;;16.15;7.28;;;;;;;;;;4982404;28;20029;-80
2022/04/04 08:41:01;;;;;;;10.52;6.50;;;;;;;;;;4981080;28;20027;-80
2022/04/04 08:43:27;;;;;;;10.30;6.40;;;;;;;;;;4981874;28;20049;-79
2022/04/04 08:45:53;;;;;;;11.27;6.40;;;;;;;;;;4982758;28;20058;-79
2022/04/04 08:48:18;;;;;;;12.60;6.65;;;;;;;;;;4979689;28;20026;-78
2022/04/04 08:50:44;;;;;;;15.82;6.43;;;;;;;;;;4979815;28;20111;-79
2022/04/04 08:53:10;;;;;;;11.95;6.63;;;;;;;;;;4981056;28;20019;-79
2022/04/04 08:55:35;;;;;;;14.35;6.55;;;;;;;;;;4981619;28;20081;-80
2022/04/04 08:58:00;;;;;;;14.35;6.93;;;;;;;;;;4979976;28;20471;-79
2022/04/04 09:00:26;;;;;;;13.40;6.40;;;;;;;;;;4980517;28;20030;-79
2022/04/04 09:02:56;;;;;;;8.48;5.60;;;;;;;;;;4980058;28;20015;-81
2022/04/04 09:05:22;;;;;;;14.15;6.45;;;;;;;;;;4980851;28;20022;-80
2022/04/04 09:07:57;;;;;;;11.90;6.60;;;;;;;;;;4981380;28;20019;-80
2022/04/04 09:10:29;;;;;;;10.05;5.93;;;;;;;;;;4981060;28;20026;-78
2022/04/04 09:13:03;;;;;;;12.40;6.75;;;;;;;;;;4978819;28;20034;-79
2022/04/04 09:15:47;;;;;;;9.55;5.95;;;;;;;;;;4977770;28;20027;-78
2022/04/04 09:18:13;;;;;;;12.30;6.90;;;;;;;;;;4978755;28;20081;-80
2022/04/04 09:20:46;;;;;;;8.90;5.55;;;;;;;;;;4978581;28;20018;-79
2022/04/04 09:23:12;;;;;;;8.30;5.63;;;;;;;;;;4978247;28;20050;-78
2022/04/04 09:25:37;;;;;;;10.15;5.13;;;;;;;;;;4977459;28;20031;-79
2022/04/04 09:28:15;;;;;;;10.27;6.18;;;;;;;;;;4978760;28;20113;-80
2022/04/04 09:30:41;;;;;;;8.95;5.78;;;;;;;;;;4978139;28;20033;-79
2022/04/04 09:33:06;;;;;;;11.52;5.85;;;;;;;;;;4978388;28;20456;-81
2022/04/04 09:35:43;;;;;;;7.88;5.43;;;;;;;;;;4977280;28;20139;-79
2022/04/04 09:38:12;;;;;;;8.43;5.22;;;;;;;;;;4977801;28;20015;-80
2022/04/04 09:40:37;;;;;;;;;;;;;;;;;;4977794;28;20019;-79
2022/04/04 09:43:06;;;;;;;8.15;5.38;;;;;;;;;;4975942;28;19929;-79
2022/04/04 09:45:31;;;;;;;10.57;5.30;;;;;;;;;;4977548;28;20022;-80
2022/04/04 09:47:56;;;;;;;12.27;5.38;;;;;;;;;;4977288;28;20026;-78
2022/04/04 09:50:32;;;;;;;12.52;5.47;;;;;;;;;;4976691;28;20031;-80
2022/04/04 09:52:57;;;;;;;22.02;5.88;;;;;;;;;;4976423;28;20102;-78
2022/04/04 09:55:30;;;;;;;8.30;5.38;;;;;;;;;;4975414;28;20065;-79
2022/04/04 09:57:57;;;;;;;9.55;5.65;;;;;;;;;;4976296;28;20022;-80
2022/04/04 10:00:22;;;;;;;13.18;4.80;;;;;;;;;;4975690;28;20042;-80
2022/04/04 10:02:48;;;;;;;8.55;4.80;;;;;;;;;;4977324;28;20015;-78
2022/04/04 10:05:13;;;;;;;11.25;4.75;;;;;;;;;;4976730;28;20026;-79
2022/04/04 10:07:39;;;;;;;7.28;4.57;;;;;;;;;;4976481;28;20023;-79
2022/04/04 10:10:05;;;;;;;9.30;4.80;;;;;;;;;;4979502;28;20034;-79
2022/04/04 10:12:33;;;;;;;19.60;5.32;;;;;;;;;;4976274;28;20019;-79
2022/04/04 10:15:00;;;;;;;8.18;5.20;;;;;;;;;;4977003;28;20474;-80
2022/04/04 10:17:25;;;;;;;7.22;4.38;;;;;;;;;;4975889;28;20039;-80
2022/04/04 10:19:51;;;;;;;7.20;4.53;;;;;;;;;;4975437;28;20375;-80
2022/04/04 10:22:16;;;;;;;8.02;4.57;;;;;;;;;;4976126;28;20419;-80
2022/04/04 10:24:42;;;;;;;6.38;4.30;;;;;;;;;;4976661;28;20022;-80
2022/04/04 10:27:12;;;;;;;10.25;4.55;;;;;;;;;;4976316;28;20062;-80
2022/04/04 10:29:39;;;;;;;13.65;4.70;;;;;;;;;;4976837;28;20510;-80
2022/04/04 10:32:05;;;;;;;10.23;4.70;;;;;;;;;;4979126;28;20106;-81
2022/04/04 10:34:40;;;;;;;12.25;4.00;;;;;;;;;;4976262;28;20018;-79
2022/04/04 10:37:09;;;;;;;6.47;3.42;;;;;;;;;;4975045;28;20019;-80
2022/04/04 10:39:44;;;;;;;16.65;3.30;;;;;;;;;;4977086;28;20023;-79
2022/04/04 10:42:30;;;;;;;6.70;4.00;;;;;;;;;;4977014;28;20088;-80
2022/04/04 10:45:00;;;;;;;8.00;3.45;;;;;;;;;;4974320;28;20023;-78
2022/04/04 10:47:26;;;;;;;6.35;3.55;;;;;;;;;;4974766;28;20014;-78
2022/04/04 10:49:54;;;;;;;5.68;3.20;;;;;;;;;;4975420;28;20034;-79
2022/04/04 10:52:22;;;;;;;6.38;3.80;;;;;;;;;;4976556;28;20023;-78
2022/04/04 10:54:47;;;;;;;7.60;3.38;;;;;;;;;;4975389;28;20023;-78
2022/04/04 10:57:16;;;;;;;6.97;4.00;;;;;;;;;;4975785;28;20019;-79
2022/04/04 10:59:44;;;;;;;6.45;3.40;;;;;;;;;;4975681;28;20027;-78
2022/04/04 11:02:10;;;;;;;6.47;3.28;;;;;;;;;;4975586;28;20474;-78
2022/04/04 11:07:37;;;;;;;6.38;3.85;;;;;;;;;;4976714;28;20106;-79
2022/04/04 11:07:38;;;;;;;6.03;3.78;;;;;;;;;;4975602;28;20442;-79
2022/04/04 11:10:26;;;;;;;5.28;3.40;;;;;;;;;;4975208;28;20027;-78
2022/04/04 11:13:02;;;;;;;5.90;3.35;;;;;;;;;;4972411;28;20018;-80
2022/04/04 11:15:44;;;;;;;12.82;4.13;;;;;;;;;;4973677;28;20030;-80
2022/04/04 11:18:10;;;;;;;6.35;3.55;;;;;;;;;;4974917;28;20019;-79
2022/04/04 11:20:43;;;;;;;11.95;4.55;;;;;;;;;;4974022;28;20069;-79
2022/04/04 11:23:11;;;;;;;6.85;3.30;;;;;;;;;;4973715;28;20102;-78
2022/04/04 11:25:38;;;;;;;9.90;3.33;;;;;;;;;;4973946;28;20035;-79
2022/04/04 11:28:04;;;;;;;15.25;3.90;;;;;;;;;;4974127;28;20062;-79
2022/04/04 11:30:29;;;;;;;9.32;4.00;;;;;;;;;;4975493;28;20015;-79
2022/04/04 11:32:59;;;;;;;9.88;3.58;;;;;;;;;;4975146;28;20134;-79
2022/04/04 11:35:27;;;;;;;9.70;3.70;;;;;;;;;;4976409;28;20037;-79
2022/04/04 11:38:00;;;;;;;8.35;3.50;;;;;;;;;;4975197;28;20015;-80
2022/04/04 11:40:29;;;;;;;6.35;3.47;;;;;;;;;;4973415;28;20019;-79
2022/04/04 11:42:54;;;;;;;;;;;;;;;;;;4974211;28;20018;-80
2022/04/04 11:45:21;;;;;;;8.74;3.38;;;;;;;;;;4974330;28;19906;-79
2022/04/04 11:47:49;;;;;;;6.40;4.22;;;;;;;;;;4973783;28;20074;-79
2022/04/04 11:50:16;;;;;;;4.40;3.22;;;;;;;;;;4974528;28;20015;-79
2022/04/04 11:52:45;;;;;;;6.90;3.58;;;;;;;;;;4974386;28;20033;-80
2022/04/04 11:55:13;;;;;;;6.03;3.55;;;;;;;;;;4974867;28;20081;-78
2022/04/04 11:57:39;;;;;;;6.18;3.22;;;;;;;;;;4973913;28;20482;-80
2022/04/04 12:00:05;;;;;;;7.65;4.40;;;;;;;;;;4978216;28;20022;-79
2022/04/04 12:02:30;;;;;;;7.50;4.03;;;;;;;;;;4979527;28;20023;-79
2022/04/04 12:04:57;;;;;;;7.47;3.42;;;;;;;;;;4980381;28;20065;-79
2022/04/04 12:07:22;;;;;;;9.82;4.35;;;;;;;;;;4980714;28;20029;-80
2022/04/04 12:09:51;;;;;;;7.13;4.53;;;;;;;;;;4981273;28;20026;-79
2022/04/04 12:12:16;;;;;;;;;;;;;;;;;;4980894;28;20090;-79
2022/04/04 12:14:45;;;;;;;7.30;4.62;;;;;;;;;;4982559;28;19914;-79
2022/04/04 12:17:16;;;;;;;7.10;4.00;;;;;;;;;;4979675;28;20022;-79
2022/04/04 12:19:45;;;;;;;7.47;4.03;;;;;;;;;;4979392;28;20255;-79
2022/04/04 12:24:55;;;;;;;9.27;4.00;;;;;;;;;;4978804;28;20508;-79
2022/04/04 12:27:20;;;;;;;7.40;4.35;;;;;;;;;;4978971;28;20105;-80
2022/04/04 12:29:46;;;;;;;10.48;4.30;;;;;;;;;;4979213;28;20031;-80
2022/04/04 12:32:18;;;;;;;9.10;3.70;;;;;;;;;;4978632;28;20026;-80
2022/04/04 12:35:00;;;;;;;6.95;3.78;;;;;;;;;;4976741;28;20033;-79
2022/04/04 12:37:33;;;;;;;8.32;4.32;;;;;;;;;;4978197;28;20138;-79
2022/04/04 12:40:18;;;;;;;10.52;4.15;;;;;;;;;;4976993;28;20040;-79
2022/04/04 12:42:45;;;;;;;6.78;4.38;;;;;;;;;;4979406;28;20039;-79
2022/04/04 12:45:11;;;;;;;9.25;4.18;;;;;;;;;;4977468;28;20505;-79
2022/04/04 12:47:52;;;;;;;10.30;4.38;;;;;;;;;;4978256;28;20510;-80
2022/04/04 12:50:21;;;;;;;7.20;4.38;;;;;;;;;;4978425;28;20102;-80
2022/04/04 12:52:59;;;;;;;7.53;3.88;;;;;;;;;;4978133;28;20109;-80
2022/04/04 12:55:24;;;;;;;6.18;3.75;;;;;;;;;;4983231;28;20070;-81
2022/04/04 12:57:50;;;;;;;8.95;3.97;;;;;;;;;;4990958;28;20089;-81
2022/04/04 13:00:28;;;;;;;9.15;4.50;;;;;;;;;;5009307;28;20017;-81
2022/04/04 13:02:55;;;;;;;6.70;4.45;;;;;;;;;;5009075;28;20018;-82
2022/04/04 13:05:23;;;;;;;36.85;6.00;;;;;;;;;;5010230;28;20022;-82
2022/04/04 13:07:49;;;;;;;6.63;3.92;;;;;;;;;;5010620;28;20018;-82
2022/04/04 13:10:15;;;;;;;5.90;4.13;;;;;;;;;;5010103;28;20031;-81
2022/04/04 13:12:41;;;;;;;9.38;4.60;;;;;;;;;;5001153;28;20485;-79
2022/04/04 13:15:07;;;;;;;5.90;3.67;;;;;;;;;;4979119;28;20026;-80
2022/04/04 13:17:34;;;;;;;7.55;3.90;;;;;;;;;;4982358;28;20078;-80
2022/04/04 13:19:59;;;;;;;9.05;4.15;;;;;;;;;;4977264;28;20019;-81
2022/04/04 13:22:24;;;;;;;5.65;4.03;;;;;;;;;;4977533;28;20045;-80
2022/04/04 13:24:49;;;;;;;16.65;4.25;;;;;;;;;;4976648;28;20019;-79
2022/04/04 13:27:21;;;;;;;8.43;4.53;;;;;;;;;;4976626;28;20026;-78
2022/04/04 13:29:46;;;;;;;9.23;4.20;;;;;;;;;;4974905;28;20509;-79
2022/04/04 13:32:12;;;;;;;11.02;4.53;;;;;;;;;;4976819;28;20026;-80
2022/04/04 13:34:37;;;;;;;6.75;4.10;;;;;;;;;;4975405;28;20057;-81
2022/04/04 13:37:03;;;;;;;6.18;4.22;;;;;;;;;;4975229;28;20545;-79
2022/04/04 13:39:28;;;;;;;7.88;4.10;;;;;;;;;;4975244;28;20015;-79
2022/04/04 13:41:53;;;;;;;9.55;4.18;;;;;;;;;;4976623;28;20038;-80
2022/04/04 13:44:18;;;;;;;12.75;5.10;;;;;;;;;;4976524;28;20074;-79
2022/04/04 13:46:44;;;;;;;7.25;4.50;;;;;;;;;;4976866;28;20105;-77
2022/04/04 13:49:09;;;;;;;9.52;4.80;;;;;;;;;;4974277;28;20029;-78
2022/04/04 13:51:34;;;;;;;7.10;4.50;;;;;;;;;;4975905;28;20095;-78
2022/04/04 13:54:00;;;;;;;6.97;4.75;;;;;;;;;;4974071;28;20076;-79
2022/04/04 13:56:26;;;;;;;7.10;5.00;;;;;;;;;;4975832;28;20023;-80
2022/04/04 13:58:55;;;;;;;12.43;5.47;;;;;;;;;;4975705;28;20018;-79
2022/04/04 14:01:22;;;;;;;8.43;5.20;;;;;;;;;;4978196;28;20019;-80
2022/04/04 14:03:47;;;;;;;9.77;5.45;;;;;;;;;;4974302;28;20082;-80
2022/04/04 14:06:13;;;;;;;11.13;4.93;;;;;;;;;;4974483;28;20031;-79
2022/04/04 14:08:39;;;;;;;6.82;4.07;;;;;;;;;;4975452;28;20470;-79
2022/04/04 14:11:07;;;;;;;8.85;5.60;;;;;;;;;;4976058;28;20045;-80
2022/04/04 14:13:36;;;;;;;7.35;4.80;;;;;;;;;;4975673;28;20094;-79
2022/04/04 14:16:02;;;;;;;10.23;5.60;;;;;;;;;;4970747;28;20034;-79
2022/04/04 14:18:27;;;;;;;8.55;5.97;;;;;;;;;;4974351;28;20015;-79
2022/04/04 14:20:52;;;;;;;6.72;4.75;;;;;;;;;;4975887;28;20370;-77
2022/04/04 14:23:18;;;;;;;7.43;5.10;;;;;;;;;;4976161;28;20018;-78
2022/04/04 14:25:43;;;;;;;8.52;4.97;;;;;;;;;;4975821;28;20034;-78
2022/04/04 14:28:37;;;;;;;9.27;4.78;;;;;;;;;;5018715;23;20081;-90
2022/04/04 14:31:10;;;;;;;18.13;5.43;;;;;;;;;;4994856;28;20078;-91
2022/04/04 14:33:38;;;;;;;8.93;5.35;;;;;;;;;;4999765;28;20014;-89
2022/04/04 14:36:06;;;;;;;9.73;4.82;;;;;;;;;;5000397;28;20015;-91
2022/04/04 14:38:55;;;;;;;7.15;4.05;;;;;;;;;;5000051;28;20011;-90
2022/04/04 14:41:23;;;;;;;9.80;5.03;;;;;;;;;;4999488;28;20110;-91